createdAt,value
2023-01-19T00:00:15.575Z,92441.70
2023-01-19T00:01:09.525Z,92443.05
2023-01-19T00:01:45.140Z,92442.58
2023-01-19T00:02:21.456Z,92445.11
2023-01-19T00:02:55.329Z,92447.18
2023-01-19T00:03:39.101Z,92447.54
2023-01-19T00:04:12.599Z,92449.35
2023-01-19T00:04:46.285Z,92450.17
2023-01-19T00:05:19.911Z,92448.52
2023-01-19T00:05:53.613Z,92451.59
2023-01-19T00:06:29.309Z,92451.41
2023-01-19T00:07:05.812Z,92451.27
2023-01-19T00:07:46.890Z,92451.80
2023-01-19T00:08:24.702Z,92451.42
2023-01-19T00:09:00.683Z,92452.45
2023-01-19T00:09:38.643Z,92450.46
2023-01-19T00:10:13.863Z,92450.38
2023-01-19T00:10:53.852Z,92454.23
2023-01-19T00:11:30.074Z,92450.75
2023-01-19T00:12:03.694Z,92451.45
2023-01-19T00:12:37.202Z,92452.81
2023-01-19T00:13:10.839Z,92452.39
2023-01-19T00:13:51.067Z,92450.03
2023-01-19T00:14:30.200Z,92453.30
2023-01-19T00:15:04.263Z,92454.29
2023-01-19T00:15:37.991Z,92451.98
2023-01-19T00:16:20.379Z,92454.26
2023-01-19T00:16:54.128Z,92458.27
2023-01-19T00:17:32.488Z,92460.14
2023-01-19T00:18:11.396Z,92460.89
2023-01-19T00:18:50.796Z,92460.81
2023-01-19T00:19:24.698Z,92466.42
2023-01-19T00:19:58.322Z,92466.77
2023-01-19T00:20:38.840Z,92467.85
2023-01-19T00:21:17.315Z,92465.13
2023-01-19T00:21:50.893Z,92467.04
2023-01-19T00:22:24.446Z,92468.93
2023-01-19T00:22:58.352Z,92469.16
2023-01-19T00:23:33.955Z,92470.70
2023-01-19T00:24:07.813Z,92468.52
2023-01-19T00:24:41.381Z,92466.05
2023-01-19T00:25:14.994Z,92471.20
2023-01-19T00:25:49.480Z,92470.15
2023-01-19T00:26:24.351Z,92470.02
2023-01-19T00:26:58.979Z,92470.05
2023-01-19T00:27:35.125Z,92471.65
2023-01-19T00:28:11.885Z,92470.45
2023-01-19T00:28:45.564Z,92469.52
2023-01-19T00:29:22.183Z,92470.45
2023-01-19T00:29:58.146Z,92473.52
2023-01-19T00:30:31.600Z,92470.20
2023-01-19T00:31:05.330Z,92473.50
2023-01-19T00:31:39.292Z,92469.17
2023-01-19T00:32:14.755Z,92473.88
2023-01-19T00:32:48.332Z,92473.09
2023-01-19T00:33:21.936Z,92470.81
2023-01-19T00:33:55.717Z,92471.89
2023-01-19T00:34:39.312Z,92471.17
2023-01-19T00:35:12.874Z,92472.46
2023-01-19T00:35:51.860Z,92473.05
2023-01-19T00:36:25.551Z,92475.08
2023-01-19T00:37:02.268Z,92472.77
2023-01-19T00:37:36.016Z,92460.48
2023-01-19T00:38:11.441Z,92473.97
2023-01-19T00:38:44.961Z,92471.74
2023-01-19T00:39:18.575Z,92475.25
2023-01-19T00:39:52.048Z,92475.28
2023-01-19T00:40:25.677Z,92473.30
2023-01-19T00:40:59.370Z,92472.86
2023-01-19T00:41:51.616Z,92475.10
2023-01-19T00:42:41.611Z,92475.98
2023-01-19T00:43:17.582Z,92478.87
2023-01-19T00:43:58.525Z,92472.54
2023-01-19T00:44:32.071Z,92477.78
2023-01-19T00:45:06.817Z,92479.05
2023-01-19T00:45:40.878Z,92478.34
2023-01-19T00:46:14.575Z,92478.59
2023-01-19T00:46:48.393Z,92477.19
2023-01-19T00:47:21.953Z,92478.21
2023-01-19T00:48:00.428Z,92477.89
2023-01-19T00:48:36.442Z,92464.50
2023-01-19T00:49:10.429Z,92465.92
2023-01-19T00:49:45.672Z,92482.23
2023-01-19T00:50:19.347Z,92483.82
2023-01-19T00:50:52.903Z,92482.13
2023-01-19T00:51:35.470Z,92481.00
2023-01-19T00:52:10.074Z,92481.13
2023-01-19T00:52:45.082Z,92484.81
2023-01-19T00:53:18.637Z,92483.91
2023-01-19T00:53:52.291Z,92486.36
2023-01-19T00:54:27.699Z,92490.04
2023-01-19T00:55:01.470Z,92485.27
2023-01-19T00:55:35.855Z,92487.41
2023-01-19T00:56:09.376Z,92477.34
2023-01-19T00:56:45.435Z,92485.16
2023-01-19T00:57:21.993Z,92484.65
2023-01-19T00:57:59.907Z,92486.23
2023-01-19T00:58:36.299Z,92477.86
2023-01-19T00:59:11.108Z,92487.19
2023-01-19T00:59:44.803Z,92487.18
2023-01-19T01:00:20.352Z,92487.14
2023-01-19T01:00:54.509Z,92490.05
2023-01-19T01:01:44.945Z,92494.98
2023-01-19T01:02:19.987Z,92497.09
2023-01-19T01:02:54.431Z,92495.61
2023-01-19T01:03:28.306Z,92486.44
2023-01-19T01:04:02.008Z,92502.95
2023-01-19T01:04:35.917Z,92504.04
2023-01-19T01:05:10.091Z,92500.95
2023-01-19T01:05:43.615Z,92507.63
2023-01-19T01:06:17.180Z,92508.37
2023-01-19T01:06:50.715Z,92510.46
2023-01-19T01:07:25.193Z,92509.68
2023-01-19T01:07:58.806Z,92510.48
2023-01-19T01:08:32.569Z,92512.20
2023-01-19T01:09:13.139Z,92508.91
2023-01-19T01:09:48.352Z,92511.97
2023-01-19T01:10:28.007Z,92511.02
2023-01-19T01:11:01.778Z,92512.73
2023-01-19T01:11:35.394Z,92510.97
2023-01-19T01:12:08.969Z,92511.37
2023-01-19T01:12:57.623Z,92513.58
2023-01-19T01:13:33.089Z,92509.50
2023-01-19T01:14:07.729Z,92507.40
2023-01-19T01:14:41.349Z,92507.23
2023-01-19T01:15:16.419Z,92504.86
2023-01-19T01:15:51.850Z,92503.72
2023-01-19T01:16:25.468Z,92503.75
2023-01-19T01:16:59.219Z,92503.48
2023-01-19T01:17:33.103Z,92502.94
2023-01-19T01:18:06.817Z,92505.91
2023-01-19T01:18:40.366Z,92498.48
2023-01-19T01:19:14.049Z,92494.94
2023-01-19T01:19:47.715Z,92500.23
2023-01-19T01:20:24.243Z,92495.45
2023-01-19T01:21:05.054Z,92499.14
2023-01-19T01:21:38.954Z,92501.45
2023-01-19T01:22:12.519Z,92498.73
2023-01-19T01:22:48.845Z,92501.82
2023-01-19T01:23:23.139Z,92499.31
2023-01-19T01:23:56.722Z,92497.41
2023-01-19T01:24:30.659Z,92502.02
2023-01-19T01:25:04.458Z,92502.55
2023-01-19T01:25:38.878Z,92503.43
2023-01-19T01:26:12.554Z,92502.80
2023-01-19T01:26:46.265Z,92499.86
2023-01-19T01:27:19.901Z,92502.35
2023-01-19T01:27:54.529Z,92500.52
2023-01-19T01:28:28.082Z,92495.30
2023-01-19T01:29:02.036Z,92498.50
2023-01-19T01:29:35.728Z,92495.66
2023-01-19T01:30:11.726Z,92495.02
2023-01-19T01:30:45.282Z,92495.23
2023-01-19T01:31:18.877Z,92494.50
2023-01-19T01:31:52.693Z,92492.15
2023-01-19T01:32:26.488Z,92492.73
2023-01-19T01:33:00.362Z,92491.42
2023-01-19T01:33:40.758Z,92485.77
2023-01-19T01:34:15.252Z,92491.11
2023-01-19T01:34:48.900Z,92490.86
2023-01-19T01:35:22.482Z,92493.20
2023-01-19T01:35:56.052Z,92490.36
2023-01-19T01:36:32.409Z,92493.57
2023-01-19T01:37:08.441Z,92492.89
2023-01-19T01:37:45.716Z,92494.55
2023-01-19T01:38:19.249Z,92493.49
2023-01-19T01:38:52.863Z,92492.60
2023-01-19T01:39:26.389Z,92490.48
2023-01-19T01:39:59.902Z,92489.80
2023-01-19T01:40:33.437Z,92494.27
2023-01-19T01:41:07.033Z,92490.88
2023-01-19T01:41:40.604Z,92494.14
2023-01-19T01:42:19.770Z,92488.97
2023-01-19T01:42:53.324Z,92492.77
2023-01-19T01:44:04.049Z,92489.73
2023-01-19T01:44:53.217Z,92493.27
2023-01-19T01:45:32.743Z,92493.23
2023-01-19T01:46:06.751Z,92492.48
2023-01-19T01:46:40.217Z,92491.86
2023-01-19T01:47:14.157Z,92488.63
2023-01-19T01:47:50.194Z,92496.11
2023-01-19T01:48:31.094Z,92488.72
2023-01-19T01:49:14.654Z,92484.48
2023-01-19T01:49:48.841Z,92490.48
2023-01-19T01:50:28.869Z,92487.52
2023-01-19T01:51:27.055Z,92486.69
2023-01-19T01:52:01.081Z,92490.31
2023-01-19T01:52:39.148Z,92487.49
2023-01-19T01:53:15.225Z,92490.02
2023-01-19T01:54:09.769Z,92491.69
2023-01-19T01:54:43.852Z,92490.61
2023-01-19T01:55:18.838Z,92492.59
2023-01-19T01:55:52.353Z,92494.70
2023-01-19T01:56:34.566Z,92492.21
2023-01-19T01:57:13.208Z,92489.36
2023-01-19T01:57:52.204Z,92493.08
2023-01-19T01:58:25.940Z,92490.17
2023-01-19T01:59:03.162Z,92489.81
2023-01-19T01:59:43.364Z,92491.67
2023-01-19T02:00:17.325Z,92485.19
2023-01-19T02:01:11.188Z,92487.98
2023-01-19T02:02:03.814Z,92492.29
2023-01-19T02:02:55.388Z,92489.59
2023-01-19T02:03:29.727Z,92484.13
2023-01-19T02:04:03.688Z,92486.59
2023-01-19T02:04:38.754Z,92479.47
2023-01-19T02:05:21.274Z,92486.36
2023-01-19T02:05:59.581Z,92485.44
2023-01-19T02:06:34.139Z,92480.39
2023-01-19T02:07:26.532Z,92479.13
2023-01-19T02:08:23.529Z,92479.53
2023-01-19T02:09:25.124Z,92481.50
2023-01-19T02:10:17.672Z,92482.58
2023-01-19T02:11:10.548Z,92475.48
2023-01-19T02:12:02.967Z,92477.88
2023-01-19T02:12:55.592Z,92481.65
2023-01-19T02:13:31.003Z,92478.29
2023-01-19T02:14:06.026Z,92481.36
2023-01-19T02:14:39.614Z,92479.17
2023-01-19T02:15:19.361Z,92479.34
2023-01-19T02:15:59.671Z,92475.52
2023-01-19T02:16:34.261Z,92478.09
2023-01-19T02:17:08.005Z,92477.05
2023-01-19T02:17:41.495Z,92482.28
2023-01-19T02:18:15.137Z,92473.57
2023-01-19T02:18:48.882Z,92472.76
2023-01-19T02:19:32.172Z,92476.33
2023-01-19T02:20:06.497Z,92477.58
2023-01-19T02:20:42.689Z,92477.61
2023-01-19T02:21:47.018Z,92472.15
2023-01-19T02:22:22.816Z,92477.23
2023-01-19T02:23:03.441Z,92477.59
2023-01-19T02:23:51.334Z,92478.23
2023-01-19T02:24:25.817Z,92467.77
2023-01-19T02:24:59.528Z,92476.27
2023-01-19T02:25:33.469Z,92475.70
2023-01-19T02:26:10.009Z,92473.42
2023-01-19T02:26:47.167Z,92474.91
2023-01-19T02:27:21.141Z,92471.69
2023-01-19T02:27:55.587Z,92473.40
2023-01-19T02:28:30.837Z,92468.13
2023-01-19T02:29:30.690Z,92468.73
2023-01-19T02:30:05.151Z,92470.43
2023-01-19T02:30:41.420Z,92467.35
2023-01-19T02:31:15.488Z,92463.85
2023-01-19T02:31:49.088Z,92463.48
2023-01-19T02:32:22.738Z,92464.67
2023-01-19T02:32:56.252Z,92459.28
2023-01-19T02:33:29.815Z,92463.83
2023-01-19T02:34:05.739Z,92458.92
2023-01-19T02:34:39.301Z,92462.87
2023-01-19T02:35:13.333Z,92455.50
2023-01-19T02:35:48.848Z,92458.64
2023-01-19T02:36:27.370Z,92461.94
2023-01-19T02:37:11.761Z,92454.89
2023-01-19T02:37:45.988Z,92458.04
2023-01-19T02:38:21.534Z,92458.27
2023-01-19T02:39:00.406Z,92459.16
2023-01-19T02:39:39.255Z,92455.55
2023-01-19T02:40:20.021Z,92453.66
2023-01-19T02:40:57.056Z,92454.44
2023-01-19T02:41:37.708Z,92447.06
2023-01-19T02:42:16.213Z,92446.17
2023-01-19T02:42:52.265Z,92448.51
2023-01-19T02:43:28.406Z,92443.74
2023-01-19T02:44:03.627Z,92444.66
2023-01-19T02:44:39.749Z,92445.55
2023-01-19T02:45:17.188Z,92443.89
2023-01-19T02:45:50.990Z,92440.45
2023-01-19T02:46:25.955Z,92438.87
2023-01-19T02:46:59.991Z,92441.73
2023-01-19T02:47:43.227Z,92443.45
2023-01-19T02:48:18.825Z,92440.45
2023-01-19T02:48:52.405Z,92437.80
2023-01-19T03:01:19.987Z,92446.18
2023-01-19T03:02:17.830Z,92445.61
2023-01-19T03:03:10.710Z,92448.29
2023-01-19T03:04:19.989Z,92442.67
2023-01-19T03:05:08.563Z,92445.48
2023-01-19T03:05:54.509Z,92455.91
2023-01-19T03:06:40.351Z,92451.20
2023-01-19T03:07:27.669Z,92453.11
2023-01-19T03:08:29.013Z,92455.54
2023-01-19T03:09:11.648Z,92450.23
2023-01-19T03:09:57.700Z,92454.85
2023-01-19T03:10:43.082Z,92456.02
2023-01-19T03:11:16.793Z,92453.08
2023-01-19T03:12:09.825Z,92451.18
2023-01-19T03:12:50.871Z,92453.88
2023-01-19T03:13:32.978Z,92451.12
2023-01-19T03:14:13.383Z,92451.41
2023-01-19T03:14:48.759Z,92451.63
2023-01-19T03:15:25.247Z,92454.00
2023-01-19T03:16:31.057Z,92456.85
2023-01-19T03:17:07.855Z,92455.95
2023-01-19T03:17:44.988Z,92453.84
2023-01-19T03:18:24.986Z,92453.81
2023-01-19T03:19:10.421Z,92452.58
2023-01-19T03:19:48.470Z,92455.22
2023-01-19T03:20:25.785Z,92454.65
2023-01-19T03:21:04.094Z,92455.86
2023-01-19T03:21:39.427Z,92458.71
2023-01-19T03:22:23.123Z,92451.70
2023-01-19T03:23:04.613Z,92456.51
2023-01-19T03:23:41.468Z,92458.12
2023-01-19T03:24:17.710Z,92456.32
2023-01-19T03:24:53.967Z,92457.19
2023-01-19T03:25:31.369Z,92461.63
2023-01-19T03:26:07.259Z,92457.19
2023-01-19T03:26:47.058Z,92464.79
2023-01-19T03:27:31.439Z,92459.37
2023-01-19T03:28:05.298Z,92458.88
2023-01-19T03:28:42.433Z,92466.42
2023-01-19T03:29:17.795Z,92460.89
2023-01-19T03:29:57.354Z,92463.36
2023-01-19T03:30:41.791Z,92466.05
2023-01-19T03:31:21.444Z,92460.61
2023-01-19T03:31:57.564Z,92457.21
2023-01-19T03:32:37.628Z,92466.02
2023-01-19T03:33:23.969Z,92464.54
2023-01-19T03:34:03.513Z,92468.48
2023-01-19T03:34:39.568Z,92471.55
2023-01-19T03:35:16.005Z,92464.38
2023-01-19T03:35:53.198Z,92466.16
2023-01-19T03:36:42.843Z,92469.30
2023-01-19T03:37:19.877Z,92467.67
2023-01-19T03:37:58.379Z,92464.89
2023-01-19T03:38:37.164Z,92458.80
2023-01-19T03:39:14.442Z,92462.83
2023-01-19T03:39:48.116Z,92465.14
2023-01-19T03:40:23.673Z,92466.59
2023-01-19T03:41:02.549Z,92467.55
2023-01-19T03:41:37.874Z,92467.08
2023-01-19T03:42:14.752Z,92457.56
2023-01-19T03:42:50.569Z,92460.91
2023-01-19T03:43:25.923Z,92469.62
2023-01-19T03:44:00.326Z,92464.37
2023-01-19T03:44:37.879Z,92456.69
2023-01-19T03:45:13.023Z,92466.45
2023-01-19T03:45:47.013Z,92466.62
2023-01-19T03:46:21.392Z,92463.77
2023-01-19T03:46:57.018Z,92464.85
2023-01-19T03:47:30.759Z,92466.55
2023-01-19T03:48:05.507Z,92473.23
2023-01-19T03:48:39.282Z,92472.52
2023-01-19T03:49:13.005Z,92469.70
2023-01-19T03:49:48.869Z,92474.00
2023-01-19T03:50:27.694Z,92477.48
2023-01-19T03:51:08.172Z,92479.45
2023-01-19T03:51:42.120Z,92481.17
2023-01-19T03:52:15.497Z,92483.98
2023-01-19T03:53:10.143Z,92481.39
2023-01-19T03:53:43.767Z,92487.92
2023-01-19T03:54:17.578Z,92485.86
2023-01-19T03:54:51.077Z,92490.48
2023-01-19T03:55:24.662Z,92487.44
2023-01-19T03:55:58.269Z,92488.91
2023-01-19T03:56:31.984Z,92493.21
2023-01-19T03:57:05.601Z,92493.46
2023-01-19T03:57:39.140Z,92489.05
2023-01-19T03:58:12.701Z,92491.70
2023-01-19T03:58:47.175Z,92494.18
2023-01-19T03:59:22.007Z,92489.00
2023-01-19T03:59:56.115Z,92491.80
2023-01-19T04:00:30.142Z,92477.69
2023-01-19T04:01:04.424Z,92490.12
2023-01-19T04:01:38.134Z,92490.91
2023-01-19T04:02:11.794Z,92487.00
2023-01-19T04:02:45.344Z,92488.41
2023-01-19T04:03:18.996Z,92492.74
2023-01-19T04:03:53.535Z,92490.36
2023-01-19T04:04:27.040Z,92491.80
2023-01-19T04:05:00.560Z,92492.06
2023-01-19T04:05:34.317Z,92490.38
2023-01-19T04:06:08.908Z,92494.52
2023-01-19T04:06:43.492Z,92499.10
2023-01-19T04:07:17.228Z,92497.52
2023-01-19T04:07:54.313Z,92496.23
2023-01-19T04:08:28.273Z,92498.64
2023-01-19T04:09:02.078Z,92497.73
2023-01-19T04:09:35.729Z,92498.19
2023-01-19T04:10:12.885Z,92497.84
2023-01-19T04:10:46.450Z,92501.89
2023-01-19T04:11:20.005Z,92498.63
2023-01-19T04:11:53.731Z,92499.55
2023-01-19T04:12:27.443Z,92502.99
2023-01-19T04:13:02.800Z,92502.88
2023-01-19T04:13:37.091Z,92507.23
2023-01-19T04:14:10.790Z,92503.79
2023-01-19T04:14:44.367Z,92505.94
2023-01-19T04:15:18.800Z,92506.91
2023-01-19T04:15:52.237Z,92507.27
2023-01-19T04:16:25.881Z,92500.55
2023-01-19T04:16:59.442Z,92508.05
2023-01-19T04:17:33.069Z,92508.70
2023-01-19T04:18:07.200Z,92510.23
2023-01-19T04:18:41.627Z,92510.46
2023-01-19T04:19:15.230Z,92512.95
2023-01-19T04:19:49.067Z,92512.88
2023-01-19T04:20:22.784Z,92513.34
2023-01-19T04:20:56.455Z,92516.09
2023-01-19T04:21:30.102Z,92512.29
2023-01-19T04:22:05.154Z,92511.19
2023-01-19T04:22:39.536Z,92515.05
2023-01-19T04:23:13.010Z,92512.99
2023-01-19T04:23:46.889Z,92521.68
2023-01-19T04:24:20.450Z,92516.80
2023-01-19T04:24:54.013Z,92518.67
2023-01-19T04:25:28.700Z,92519.05
2023-01-19T04:26:05.284Z,92522.61
2023-01-19T04:26:38.903Z,92524.02
2023-01-19T04:27:12.420Z,92525.39
2023-01-19T04:27:46.004Z,92523.48
2023-01-19T04:28:19.507Z,92524.38
2023-01-19T04:28:53.026Z,92525.17
2023-01-19T04:29:26.639Z,92529.28
2023-01-19T04:30:00.871Z,92530.39
2023-01-19T04:30:34.658Z,92529.40
2023-01-19T04:31:08.930Z,92529.83
2023-01-19T04:31:42.396Z,92532.13
2023-01-19T04:32:16.414Z,92532.08
2023-01-19T04:32:50.079Z,92531.39
2023-01-19T04:33:24.271Z,92532.84
2023-01-19T04:33:57.921Z,92532.52
2023-01-19T04:34:31.528Z,92533.17
2023-01-19T04:35:05.569Z,92532.89
2023-01-19T04:35:39.084Z,92535.23
2023-01-19T04:36:12.840Z,92540.02
2023-01-19T04:36:47.123Z,92533.79
2023-01-19T04:37:20.793Z,92537.02
2023-01-19T04:37:54.659Z,92538.51
2023-01-19T04:38:28.439Z,92541.67
2023-01-19T04:39:01.998Z,92541.02
2023-01-19T04:39:36.094Z,92541.13
2023-01-19T04:40:10.213Z,92544.59
2023-01-19T04:40:43.810Z,92550.23
2023-01-19T04:41:17.397Z,92547.27
2023-01-19T04:41:52.092Z,92541.55
2023-01-19T04:42:27.779Z,92548.98
2023-01-19T04:43:01.771Z,92554.52
2023-01-19T04:43:35.633Z,92551.11
2023-01-19T04:44:09.356Z,92550.71
2023-01-19T04:44:43.275Z,92551.15
2023-01-19T04:45:17.673Z,92552.64
2023-01-19T04:45:52.042Z,92553.97
2023-01-19T04:46:25.548Z,92550.44
2023-01-19T04:46:59.074Z,92554.58
2023-01-19T04:47:32.479Z,92556.60
2023-01-19T04:48:06.304Z,92562.77
2023-01-19T04:48:41.328Z,92559.58
2023-01-19T04:49:15.850Z,92562.75
2023-01-19T04:49:49.298Z,92564.84
2023-01-19T04:50:22.779Z,92561.38
2023-01-19T04:50:56.306Z,92559.15
2023-01-19T04:51:29.933Z,92567.17
2023-01-19T04:52:05.005Z,92567.58
2023-01-19T04:52:39.059Z,92567.23
2023-01-19T04:53:13.933Z,92564.62
2023-01-19T04:53:47.639Z,92570.81
2023-01-19T04:54:21.494Z,92567.52
2023-01-19T04:54:54.918Z,92569.27
2023-01-19T04:55:28.434Z,92568.91
2023-01-19T04:56:01.958Z,92566.71
2023-01-19T04:56:36.030Z,92561.88
2023-01-19T04:57:09.606Z,92569.46
2023-01-19T04:57:43.823Z,92572.37
2023-01-19T04:58:17.314Z,92570.83
2023-01-19T04:58:50.742Z,92569.48
2023-01-19T04:59:24.459Z,92569.24
2023-01-19T04:59:58.858Z,92571.66
2023-01-19T05:00:32.559Z,92571.59
2023-01-19T05:01:10.013Z,92574.89
2023-01-19T05:01:43.826Z,92573.55
2023-01-19T05:02:17.985Z,92573.20
2023-01-19T05:02:52.136Z,92576.77
2023-01-19T05:03:26.672Z,92576.94
2023-01-19T05:04:00.813Z,92579.54
2023-01-19T05:04:34.414Z,92583.86
2023-01-19T05:05:08.414Z,92580.29
2023-01-19T05:05:42.046Z,92579.43
2023-01-19T05:06:15.652Z,92584.54
2023-01-19T05:06:49.755Z,92586.14
2023-01-19T05:07:23.298Z,92585.27
2023-01-19T05:07:56.890Z,92582.61
2023-01-19T05:08:30.640Z,92588.33
2023-01-19T05:09:04.808Z,92587.13
2023-01-19T05:09:38.277Z,92581.67
2023-01-19T05:10:12.660Z,92584.08
2023-01-19T05:10:46.377Z,92584.70
2023-01-19T05:11:19.840Z,92585.15
2023-01-19T05:11:53.403Z,92584.23
2023-01-19T05:12:27.637Z,92585.41
2023-01-19T05:13:01.571Z,92586.15
2023-01-19T05:13:35.646Z,92584.50
2023-01-19T05:14:10.065Z,92589.23
2023-01-19T05:14:43.748Z,92587.25
2023-01-19T05:15:17.554Z,92590.08
2023-01-19T05:15:51.148Z,92588.73
2023-01-19T05:16:24.881Z,92590.41
2023-01-19T05:16:58.944Z,92577.48
2023-01-19T05:17:32.609Z,92592.29
2023-01-19T05:18:06.714Z,92595.91
2023-01-19T05:18:40.940Z,92579.67
2023-01-19T05:19:14.459Z,92593.89
2023-01-19T05:19:49.093Z,92596.08
2023-01-19T05:20:22.727Z,92596.10
2023-01-19T05:20:56.280Z,92591.71
2023-01-19T05:21:30.021Z,92595.98
2023-01-19T05:22:04.736Z,92592.50
2023-01-19T05:22:39.495Z,92594.21
2023-01-19T05:23:13.099Z,92595.40
2023-01-19T05:23:46.628Z,92596.85
2023-01-19T05:24:22.843Z,92597.50
2023-01-19T05:24:58.002Z,92594.06
2023-01-19T05:25:31.669Z,92597.84
2023-01-19T05:26:05.404Z,92594.65
2023-01-19T05:26:38.893Z,92595.86
2023-01-19T05:27:12.578Z,92594.89
2023-01-19T05:27:48.475Z,92596.26
2023-01-19T05:28:21.991Z,92593.81
2023-01-19T05:28:55.551Z,92594.21
2023-01-19T05:29:29.031Z,92581.92
2023-01-19T05:30:02.687Z,92593.57
2023-01-19T05:30:36.928Z,92594.64
2023-01-19T05:31:10.696Z,92593.61
2023-01-19T05:31:44.284Z,92595.63
2023-01-19T05:32:17.815Z,92595.91
2023-01-19T05:32:51.352Z,92589.74
2023-01-19T05:33:25.453Z,92597.27
2023-01-19T05:33:59.083Z,92596.18
2023-01-19T05:34:32.548Z,92597.00
2023-01-19T05:35:06.763Z,92596.42
2023-01-19T05:35:40.293Z,92596.15
2023-01-19T05:36:13.923Z,92597.45
2023-01-19T05:36:49.727Z,92596.38
2023-01-19T05:37:23.299Z,92596.73
2023-01-19T05:37:56.855Z,92592.17
2023-01-19T05:38:35.338Z,92594.52
2023-01-19T05:39:09.611Z,92595.34
2023-01-19T05:39:43.378Z,92594.51
2023-01-19T05:40:17.165Z,92592.43
2023-01-19T05:40:56.664Z,92594.69
2023-01-19T05:41:30.687Z,92596.77
2023-01-19T05:42:04.412Z,92597.79
2023-01-19T05:42:38.566Z,92599.05
2023-01-19T05:43:12.244Z,92599.69
2023-01-19T05:43:45.808Z,92603.54
2023-01-19T05:44:19.264Z,92601.52
2023-01-19T05:44:53.089Z,92603.83
2023-01-19T05:45:28.560Z,92599.71
2023-01-19T05:46:05.142Z,92602.66
2023-01-19T05:46:39.748Z,92603.20
2023-01-19T05:47:13.588Z,92604.08
2023-01-19T05:47:47.165Z,92605.05
2023-01-19T05:48:20.793Z,92608.45
2023-01-19T05:48:54.404Z,92608.15
2023-01-19T05:49:28.231Z,92607.23
2023-01-19T05:50:01.817Z,92601.30
2023-01-19T05:50:35.593Z,92606.86
2023-01-19T05:51:09.268Z,92606.15
2023-01-19T05:51:45.560Z,92606.77
2023-01-19T05:52:19.092Z,92610.77
2023-01-19T05:52:59.331Z,92610.10
2023-01-19T05:53:33.066Z,92606.38
2023-01-19T05:54:08.278Z,92606.39
2023-01-19T05:54:41.705Z,92612.42
2023-01-19T05:55:16.447Z,92608.89
2023-01-19T05:55:50.048Z,92609.40
2023-01-19T05:56:23.623Z,92610.44
2023-01-19T05:56:57.935Z,92611.80
2023-01-19T05:57:31.533Z,92614.28
2023-01-19T05:58:05.209Z,92616.59
2023-01-19T05:58:42.138Z,92613.76
2023-01-19T05:59:17.713Z,92613.28
2023-01-19T05:59:51.361Z,92618.02
2023-01-19T06:00:25.954Z,92615.67
2023-01-19T06:01:03.634Z,92617.88
2023-01-19T06:01:39.858Z,92621.61
2023-01-19T06:02:13.875Z,92621.65
2023-01-19T06:02:49.550Z,92623.25
2023-01-19T06:03:23.356Z,92622.61
2023-01-19T06:03:57.141Z,92622.68
2023-01-19T06:04:31.153Z,92623.20
2023-01-19T06:05:05.701Z,92623.27
2023-01-19T06:05:39.897Z,92608.98
2023-01-19T06:06:17.958Z,92622.96
2023-01-19T06:06:52.270Z,92625.49
2023-01-19T06:07:28.293Z,92618.45
2023-01-19T06:08:02.963Z,92624.52
2023-01-19T06:08:37.345Z,92627.77
2023-01-19T06:09:11.697Z,92626.19
2023-01-19T06:09:45.780Z,92632.50
2023-01-19T06:10:19.678Z,92630.02
2023-01-19T06:10:53.638Z,92633.41
2023-01-19T06:11:27.747Z,92630.88
2023-01-19T06:12:01.738Z,92633.70
2023-01-19T06:12:35.926Z,92633.98
2023-01-19T06:13:11.469Z,92635.49
2023-01-19T06:13:45.548Z,92629.80
2023-01-19T06:14:19.410Z,92644.30
2023-01-19T06:14:53.250Z,92643.22
2023-01-19T06:15:27.217Z,92638.90
2023-01-19T06:16:02.805Z,92644.34
2023-01-19T06:16:37.140Z,92632.67
2023-01-19T06:17:11.384Z,92645.13
2023-01-19T06:17:45.317Z,92643.46
2023-01-19T06:18:19.199Z,92646.12
2023-01-19T06:18:55.389Z,92644.48
2023-01-19T06:19:29.444Z,92644.85
2023-01-19T06:20:03.829Z,92634.26
2023-01-19T06:20:38.059Z,92648.48
2023-01-19T06:21:14.623Z,92644.69
2023-01-19T06:21:52.607Z,92646.48
2023-01-19T06:22:26.531Z,92648.55
2023-01-19T06:23:01.647Z,92650.38
2023-01-19T06:23:37.254Z,92650.74
2023-01-19T06:24:12.623Z,92649.63
2023-01-19T06:24:51.058Z,92650.73
2023-01-19T06:25:25.768Z,92651.82
2023-01-19T06:25:59.843Z,92650.21
2023-01-19T06:26:33.547Z,92638.47
2023-01-19T06:27:07.350Z,92656.03
2023-01-19T06:27:45.266Z,92651.06
2023-01-19T06:28:19.113Z,92654.93
2023-01-19T06:28:53.077Z,92657.55
2023-01-19T06:29:29.737Z,92655.77
2023-01-19T06:30:04.935Z,92660.82
2023-01-19T06:30:38.707Z,92660.35
2023-01-19T06:31:12.940Z,92660.39
2023-01-19T06:31:49.821Z,92661.30
2023-01-19T06:32:23.658Z,92659.80
2023-01-19T06:32:57.623Z,92646.74
2023-01-19T06:33:31.793Z,92659.35
2023-01-19T06:34:08.248Z,92660.54
2023-01-19T06:34:44.019Z,92660.01
2023-01-19T06:35:18.675Z,92659.35
2023-01-19T06:35:52.915Z,92655.05
2023-01-19T06:36:26.971Z,92658.80
2023-01-19T06:37:00.828Z,92655.77
2023-01-19T06:37:35.812Z,92664.09
2023-01-19T06:38:09.692Z,92661.27
2023-01-19T06:38:43.493Z,92661.98
2023-01-19T06:39:17.301Z,92659.50
2023-01-19T06:39:51.076Z,92660.25
2023-01-19T06:40:24.920Z,92663.80
2023-01-19T06:40:59.517Z,92661.27
2023-01-19T06:41:34.378Z,92663.41
2023-01-19T06:42:08.747Z,92662.78
2023-01-19T06:42:42.915Z,92661.35
2023-01-19T06:43:20.624Z,92662.63
2023-01-19T06:44:00.721Z,92635.88
2023-01-19T06:44:35.339Z,92649.61
2023-01-19T06:45:17.725Z,92664.11
2023-01-19T06:45:52.428Z,92665.36
2023-01-19T06:46:29.849Z,92670.09
2023-01-19T06:47:15.763Z,92671.00
2023-01-19T06:47:50.198Z,92666.98
2023-01-19T06:48:24.988Z,92672.58
2023-01-19T06:48:58.852Z,92670.23
2023-01-19T06:49:32.616Z,92672.54
2023-01-19T06:50:06.779Z,92676.52
2023-01-19T06:50:53.363Z,92673.06
2023-01-19T06:51:27.567Z,92681.52
2023-01-19T06:52:02.029Z,92676.69
2023-01-19T06:52:42.794Z,92677.11
2023-01-19T06:53:18.051Z,92679.48
2023-01-19T06:53:52.579Z,92679.80
2023-01-19T06:54:28.128Z,92684.27
2023-01-19T06:55:06.286Z,92687.64
2023-01-19T06:55:40.540Z,92682.14
2023-01-19T06:56:14.736Z,92681.09
2023-01-19T06:56:54.031Z,92678.15
2023-01-19T06:57:29.846Z,92681.23
2023-01-19T06:58:04.281Z,92683.73
2023-01-19T06:58:40.479Z,92681.14
2023-01-19T06:59:17.885Z,92681.60
2023-01-19T06:59:53.090Z,92681.48
2023-01-19T07:00:28.416Z,92681.98
2023-01-19T07:01:07.366Z,92678.35
2023-01-19T07:01:43.047Z,92685.89
2023-01-19T07:02:27.347Z,92684.04
2023-01-19T07:03:24.392Z,92689.27
2023-01-19T07:04:00.406Z,92689.97
2023-01-19T07:04:35.141Z,92689.06
2023-01-19T07:05:10.912Z,92692.63
2023-01-19T07:05:44.581Z,92695.10
2023-01-19T07:06:18.675Z,92686.27
2023-01-19T07:06:52.636Z,92698.98
2023-01-19T07:07:27.000Z,92697.84
2023-01-19T07:08:01.397Z,92696.66
2023-01-19T07:08:37.436Z,92696.95
2023-01-19T07:09:16.783Z,92697.81
2023-01-19T07:09:53.802Z,92699.98
2023-01-19T07:11:24.361Z,92695.21
2023-01-19T07:11:30.282Z,92697.13
2023-01-19T07:12:07.032Z,92695.73
2023-01-19T07:12:41.198Z,92693.36
2023-01-19T07:13:35.912Z,92695.31
2023-01-19T07:14:10.534Z,92694.91
2023-01-19T07:14:44.877Z,92696.98
2023-01-19T07:15:23.028Z,92695.61
2023-01-19T07:15:57.449Z,92696.08
2023-01-19T07:16:31.655Z,92696.89
2023-01-19T07:17:05.684Z,92698.49
2023-01-19T07:17:39.680Z,92696.01